| time (UTC) | temp C | wind direction | speed KPH | gust KPH | rain 1hr cm | rain 24hr cm | rain mn cm | humidity % | barometer mb |
| 20260507134641 | 0 | 12.9 | 24.1 | 0.00 | 0.51 | 0.00 | 100 | 1012.0 | |
| 20260507133434 | 0 | 11.3 | 17.7 | 0.00 | 0.51 | 0.00 | 100 | 1012.0 | |
| 20260507132228 | 0 | 11.3 | 17.7 | 0.00 | 0.51 | 0.00 | 100 | 1011.9 | |
| 20260507131022 | 0 | 14.5 | 24.1 | 0.00 | 0.51 | 0.00 | 100 | 1012.0 | |
| 20260507125816 | 0 | 14.5 | 24.1 | 0.00 | 0.51 | 0.00 | 100 | 1011.9 | |
| 20260507124611 | 0 | 14.5 | 27.4 | 0.00 | 0.51 | 0.00 | 100 | 1011.7 | |
| 20260507123523 | 0 | 12.9 | 20.9 | 0.00 | 0.51 | 0.00 | 100 | 1011.7 | |
| 20260507123404 | 0 | 12.9 | 20.9 | 0.00 | 0.51 | 0.00 | 100 | 1011.7 | |
| 20260507122157 | 0 | 11.3 | 19.3 | 0.00 | 0.51 | 0.00 | 100 | 1011.8 | |
| 20260507121029 | 0 | 11.3 | 17.7 | 0.00 | 0.51 | 0.00 | 100 | 1011.8 | |
| 20260507120955 | 0 | 11.3 | 17.7 | 0.00 | 0.51 | 0.00 | 100 | 1011.8 | |
| 20260507115746 | 0 | 11.3 | 17.7 | 0.00 | 0.51 | 0.51 | 100 | 1011.8 | |
| 20260507114539 | 0 | 14.5 | 24.1 | 0.00 | 0.51 | 0.51 | 100 | 1011.9 | |
| 20260507113334 | 0 | 12.9 | 24.1 | 0.00 | 0.51 | 0.51 | 100 | 1012.0 | |
| 20260507112614 | 0 | 11.3 | 17.7 | 0.00 | 0.51 | 0.51 | 100 | 1012.0 | |
| 20260507112128 | 0 | 11.3 | 17.7 | 0.00 | 0.51 | 0.51 | 100 | 1012.0 | |
| 20260507111116 | 0 | 14.5 | 24.1 | 0.00 | 0.51 | 0.51 | 100 | 1012.0 | |
| 20260507110922 | 0 | 14.5 | 24.1 | 0.00 | 0.51 | 0.51 | 100 | 1012.0 | |
| 20260507105715 | 0 | 14.5 | 20.9 | 0.00 | 0.51 | 0.51 | 100 | 1012.0 | |
| 20260507104732 | 0 | 16.1 | 24.1 | 0.00 | 0.51 | 0.51 | 100 | 1012.0 | |
| 20260507104509 | 0 | 16.1 | 24.1 | 0.00 | 0.51 | 0.51 | 100 | 1012.0 | |
| 20260507103842 | 0 | 12.9 | 20.9 | 0.00 | 0.51 | 0.51 | 100 | 1011.9 | |
| 20260507103303 | 0 | 12.9 | 20.9 | 0.00 | 0.51 | 0.51 | 100 | 1011.9 | |
| 20260507102232 | 0 | 16.1 | 25.7 | 0.00 | 0.51 | 0.51 | 100 | 1011.8 | |
| 20260507102058 | 0 | 16.1 | 25.7 | 0.00 | 0.51 | 0.51 | 100 | 1011.8 | |
| 20260507100850 | 0 | 16.1 | 24.1 | 0.00 | 0.51 | 0.51 | 100 | 1011.8 | |
| 20260507095645 | 0 | 14.5 | 24.1 | 0.00 | 0.51 | 0.51 | 100 | 1011.7 | |
| 20260507094701 | 0 | 17.7 | 25.7 | 0.00 | 0.51 | 0.51 | 100 | 1011.6 | |
| 20260507094439 | 0 | 17.7 | 25.7 | 0.00 | 0.51 | 0.51 | 100 | 1011.6 | |
| 20260507093238 | 0 | 17.7 | 25.7 | 0.00 | 0.51 | 0.51 | 100 | 1011.5 | |
| 20260507092125 | 0 | 17.7 | 27.4 | 0.00 | 0.51 | 0.51 | 100 | 1011.5 | |
| 20260507092026 | 0 | 17.7 | 27.4 | 0.00 | 0.51 | 0.51 | 100 | 1011.5 | |
| 20260507090948 | 0 | 16.1 | 27.4 | 0.00 | 0.51 | 0.51 | 100 | 1011.4 | |
| 20260507090820 | 0 | 16.1 | 27.4 | 0.00 | 0.51 | 0.51 | 100 | 1011.4 | |
| 20260507085614 | 0 | 14.5 | 24.1 | 0.00 | 0.51 | 0.51 | 100 | 1011.4 | |
| 20260507084409 | 0 | 14.5 | 25.7 | 0.00 | 0.51 | 0.51 | 100 | 1011.3 | |
| 20260507083202 | 0 | 17.7 | 25.7 | 0.00 | 0.51 | 0.51 | 100 | 1011.1 | |
| 20260507081956 | 0 | 19.3 | 29.0 | 0.00 | 0.51 | 0.51 | 100 | 1011.1 | |
| 20260507080750 | 0 | 19.3 | 27.4 | 0.00 | 0.51 | 0.51 | 100 | 1011.0 | |
| 20260507075544 | 0 | 16.1 | 24.1 | 0.00 | 0.51 | 0.51 | 100 | 1011.0 | |
| 20260507074338 | 0 | 17.7 | 25.7 | 0.00 | 0.51 | 0.51 | 100 | 1010.8 | |
| 20260507073132 | 0 | 16.1 | 25.7 | 0.00 | 0.51 | 0.51 | 100 | 1010.9 | |
| 20260507071926 | 0 | 14.5 | 20.9 | 0.00 | 0.51 | 0.51 | 100 | 1010.9 | |
| 20260507070720 | 0 | 12.9 | 17.7 | 0.00 | 0.51 | 0.51 | 100 | 1010.8 | |
| 20260507065513 | 0 | 12.9 | 16.1 | 0.00 | 0.51 | 0.51 | 100 | 1010.9 | |
| 20260507064307 | 0 | 14.5 | 19.3 | 0.00 | 0.51 | 0.51 | 100 | 1010.9 | |
| 20260507063101 | 0 | 14.5 | 19.3 | 0.00 | 0.51 | 0.51 | 100 | 1010.8 | |
| 20260507061855 | 0 | 14.5 | 20.9 | 0.00 | 0.51 | 0.51 | 100 | 1010.7 | |
| 20260507060648 | -13 | 14.5 | 24.1 | 0.00 | 0.51 | 0.51 | 5 | 1010.5 | |
| 20260507055443 | -40 | 14.5 | 20.9 | 0.00 | 0.51 | 0.51 | 14 | 1010.4 | |
| 20260507054237 | -40 | 14.5 | 20.9 | 0.00 | 0.51 | 0.51 | 14 | 1010.3 | |
| 20260507053031 | -40 | 12.9 | 17.7 | 0.00 | 0.51 | 0.51 | 14 | 1010.2 | |
| 20260507051825 | -40 | 11.3 | 17.7 | 0.00 | 0.51 | 0.51 | 14 | 1010.1 | |
| 20260507050620 | -40 | 12.9 | 17.7 | 0.00 | 0.51 | 0.51 | 14 | 1010.0 | |
| 20260507045413 | -40 | 12.9 | 19.3 | 0.00 | 0.51 | 0.51 | 14 | 1009.8 | |
| 20260507044207 | -40 | 12.9 | 20.9 | 0.00 | 0.51 | 0.51 | 14 | 1009.6 | |
| 20260507043000 | -40 | 12.9 | 16.1 | 0.00 | 0.51 | 0.51 | 14 | 1009.4 | |
| 20260507041754 | -40 | 12.9 | 19.3 | 0.00 | 0.51 | 0.51 | 14 | 1009.4 | |
| 20260507040549 | -40 | 11.3 | 17.7 | 0.00 | 0.51 | 0.51 | 14 | 1009.3 | |
| 20260507035343 | -40 | 11.3 | 17.7 | 0.00 | 0.51 | 0.51 | 14 | 1009.2 | |
| 20260507034136 | -40 | 8.0 | 12.9 | 0.00 | 0.51 | 0.51 | 14 | 1009.1 | |
| 20260507032930 | -40 | 8.0 | 12.9 | 0.00 | 0.51 | 0.51 | 14 | 1009.1 | |
| 20260507031724 | -40 | 8.0 | 12.9 | 0.00 | 0.51 | 0.51 | 14 | 1009.0 | |
| 20260507030518 | -40 | 9.7 | 16.1 | 0.00 | 0.51 | 0.51 | 14 | 1009.0 | |
| 20260507025312 | -40 | 11.3 | 16.1 | 0.00 | 0.51 | 0.51 | 14 | 1008.9 | |
| 20260507024106 | -40 | 8.0 | 12.9 | 0.00 | 0.51 | 0.51 | 14 | 1009.0 | |
| 20260507022859 | -40 | 9.7 | 16.1 | 0.00 | 0.51 | 0.51 | 14 | 1009.0 | |
| 20260507021655 | -40 | 9.7 | 16.1 | 0.00 | 0.51 | 0.51 | 14 | 1009.0 | |
| 20260507020448 | -40 | 9.7 | 16.1 | 0.00 | 0.51 | 0.51 | 14 | 1009.0 | |
| 20260507015241 | -40 | 11.3 | 17.7 | 0.00 | 0.51 | 0.51 | 14 | 1009.0 | |
| 20260507014035 | -40 | 9.7 | 16.1 | 0.00 | 0.51 | 0.51 | 14 | 1008.9 | |
| 20260507012830 | -40 | 9.7 | 17.7 | 0.00 | 0.51 | 0.51 | 14 | 1008.8 | |
| 20260507011623 | -40 | 9.7 | 16.1 | 0.00 | 0.51 | 0.51 | 14 | 1008.7 | |
| 20260507010417 | -40 | 11.3 | 16.1 | 0.00 | 0.51 | 0.51 | 14 | 1008.6 | |
| 20260507005211 | -40 | 9.7 | 16.1 | 0.00 | 0.51 | 0.51 | 14 | 1008.5 | |
| 20260507004006 | -40 | 11.3 | 16.1 | 0.00 | 0.51 | 0.51 | 14 | 1008.5 | |
| 20260507002758 | -40 | 11.3 | 17.7 | 0.00 | 0.51 | 0.51 | 14 | 1008.5 | |
| 20260507001553 | -40 | 11.3 | 16.1 | 0.00 | 0.51 | 0.51 | 14 | 1008.6 | |
| 20260507000347 | -40 | 11.3 | 17.7 | 0.00 | 0.51 | 0.51 | 14 | 1008.5 | |
| 20260506235143 | -40 | 11.3 | 16.1 | 0.00 | 0.51 | 0.51 | 14 | 1008.4 | |
| 20260506233934 | -40 | 11.3 | 17.7 | 0.00 | 0.51 | 0.51 | 14 | 1008.4 | |
| 20260506232728 | -40 | 8.0 | 16.1 | 0.00 | 0.51 | 0.51 | 14 | 1008.3 | |
| 20260506231523 | -40 | 11.3 | 20.9 | 0.00 | 0.51 | 0.51 | 14 | 1008.2 | |
| 20260506230316 | -40 | 12.9 | 24.1 | 0.00 | 0.51 | 0.51 | 14 | 1008.2 | |
| 20260506225110 | -40 | 12.9 | 19.3 | 0.00 | 0.51 | 0.51 | 14 | 1008.2 | |
| 20260506223904 | -40 | 12.9 | 24.1 | 0.00 | 0.51 | 0.51 | 14 | 1008.0 | |
| 20260506222659 | -40 | 11.3 | 24.1 | 0.00 | 0.51 | 0.51 | 14 | 1008.0 | |
| 20260506221452 | -40 | 11.3 | 19.3 | 0.00 | 0.51 | 0.51 | 14 | 1007.7 | |
| 20260506220245 | -40 | 12.9 | 20.9 | 0.00 | 0.51 | 0.51 | 14 | 1007.5 | |
| 20260506215040 | -40 | 16.1 | 25.7 | 0.00 | 0.51 | 0.51 | 14 | 1007.2 | |
| 20260506213835 | -40 | 14.5 | 24.1 | 0.00 | 0.51 | 0.51 | 14 | 1007.3 | |
| 20260506212629 | -40 | 17.7 | 29.0 | 0.00 | 0.51 | 0.51 | 14 | 1007.2 | |
| 20260506211526 | -40 | 19.3 | 30.6 | 0.00 | 0.51 | 0.51 | 14 | 1006.9 | |
| 20260506211421 | -40 | 19.3 | 30.6 | 0.00 | 0.51 | 0.51 | 14 | 1006.9 | |
| 20260506210216 | -40 | 19.3 | 30.6 | 0.00 | 0.51 | 0.51 | 14 | 1006.9 | |
| 20260506205010 | -40 | 16.1 | 25.7 | 0.00 | 0.51 | 0.51 | 14 | 1006.9 | |
| 20260506203937 | -40 | 16.1 | 27.4 | 0.00 | 0.51 | 0.51 | 14 | 1006.8 | |
| 20260506203804 | -40 | 16.1 | 27.4 | 0.00 | 0.51 | 0.51 | 14 | 1006.8 | |
| 20260506203521 | -40 | 17.7 | 29.0 | 0.00 | 0.51 | 0.51 | 14 | 1006.6 | |
| 20260506202559 | -40 | 17.7 | 29.0 | 0.00 | 0.51 | 0.51 | 14 | 1006.6 | |
| 20260506202130 | -40 | 16.1 | 30.6 | 0.00 | 0.51 | 0.51 | 14 | 1006.2 | |
| 20260506201351 | -40 | 16.1 | 30.6 | 0.00 | 0.51 | 0.51 | 14 | 1006.2 | |
| 20260506200145 | -40 | 6.4 | 9.7 | 0.00 | 0.51 | 0.51 | 14 | 1005.8 | |
| 20260506194939 | -40 | 4.8 | 8.0 | 0.00 | 0.53 | 0.51 | 14 | 1005.6 | |
| 20260506193838 | -40 | 8.0 | 12.9 | 0.05 | 0.58 | 0.51 | 14 | 1005.4 | |
| 20260506193735 | -40 | 8.0 | 12.9 | 0.05 | 0.58 | 0.51 | 14 | 1005.4 | |
| 20260506193111 | -40 | 6.4 | 8.0 | 0.05 | 0.61 | 0.51 | 14 | 1005.2 | |
| 20260506192526 | -40 | 6.4 | 8.0 | 0.05 | 0.61 | 0.51 | 14 | 1005.2 | |
| 20260506191502 | -40 | 8.0 | 17.7 | 0.08 | 0.64 | 0.51 | 14 | 1004.9 | |
| 20260506191321 | -40 | 490.8 | 17.7 | 0.08 | 0.64 | 0.51 | 14 | 1004.9 | |
| 20260506190422 | -40 | 12.9 | 29.0 | 0.18 | 0.64 | 0.51 | 14 | 1003.9 | |
| 20260506190116 | -40 | 12.9 | 29.0 | 0.18 | 0.64 | 0.51 | 14 | 1003.9 | |
| 20260506184908 | -40 | 12.9 | 32.2 | 0.23 | 0.64 | 0.51 | 14 | 1004.0 | |
| 20260506183922 | -40 | 8.0 | 17.7 | 0.43 | 0.58 | 0.43 | 14 | 1004.5 | |
| 20260506183703 | -40 | 8.0 | 17.7 | 0.43 | 0.58 | 0.43 | 14 | 1004.5 | |
| 20260506182457 | -40 | 9.7 | 14.5 | 0.43 | 0.58 | 0.43 | 14 | 1004.5 | |
| 20260506181423 | -40 | 9.7 | 19.3 | 0.41 | 0.56 | 0.41 | 14 | 1004.7 | |
| 20260506181251 | -40 | 9.7 | 19.3 | 0.41 | 0.56 | 0.41 | 14 | 1004.7 | |
| 20260506180119 | -40 | 19.3 | 38.6 | 0.30 | 0.46 | 0.30 | 14 | 1004.2 | |
| 20260506180044 | -40 | 19.3 | 38.6 | 0.30 | 0.46 | 0.30 | 14 | 1004.2 | |
| 20260506175040 | -40 | 29.0 | 57.9 | 0.25 | 0.41 | 0.25 | 14 | 1003.1 | |
| 20260506174838 | -40 | 29.0 | 57.9 | 0.25 | 0.41 | 0.25 | 14 | 1003.1 | |
| 20260506173632 | -40 | 24.1 | 49.9 | 0.00 | 0.13 | 0.00 | 14 | 1002.4 | |
| 20260506172426 | -40 | 3.2 | 6.4 | 0.00 | 0.13 | 0.00 | 14 | 1001.7 | |
| 20260506171220 | -40 | 1.6 | 6.4 | 0.00 | 0.13 | 0.00 | 14 | 1001.2 | |
| 20260506170016 | -40 | 1.6 | 6.4 | 0.00 | 0.13 | 0.00 | 14 | 1001.1 | |
| 20260506164807 | -40 | 3.2 | 6.4 | 0.00 | 0.13 | 0.00 | 14 | 1001.0 | |
| 20260506163602 | -40 | 1.6 | 8.0 | 0.00 | 0.13 | 0.00 | 14 | 1001.4 | |
| 20260506162513 | -40 | 3.2 | 9.7 | 0.00 | 0.13 | 0.00 | 14 | 1001.8 | |
| 20260506162357 | -40 | 3.2 | 9.7 | 0.00 | 0.13 | 0.00 | 14 | 1001.8 | |
| 20260506161530 | -40 | 4.8 | 14.5 | 0.00 | 0.13 | 0.00 | 14 | 1002.0 | |
| 20260506161149 | -40 | 4.8 | 14.5 | 0.00 | 0.13 | 0.00 | 14 | 1002.0 | |
| 20260506155943 | -40 | 3.2 | 12.9 | 0.00 | 0.13 | 0.00 | 14 | 1002.1 | |
| 20260506154738 | -40 | 4.8 | 12.9 | 0.00 | 0.13 | 0.00 | 14 | 1002.1 | |
| 20260506153531 | -40 | 3.2 | 6.4 | 0.00 | 0.13 | 0.00 | 14 | 1002.4 | |
| 20260506152329 | -40 | 3.2 | 9.7 | 0.00 | 0.13 | 0.00 | 14 | 1002.5 | |
| 20260506151119 | -40 | 3.2 | 9.7 | 0.00 | 0.13 | 0.00 | 14 | 1002.6 | |
| 20260506145913 | -40 | 1.6 | 8.0 | 0.00 | 0.13 | 0.00 | 14 | 1002.8 | |
| 20260506144706 | -40 | 4.8 | 12.9 | 0.00 | 0.13 | 0.00 | 14 | 1002.8 | |
| 20260506143500 | -40 | 3.2 | 14.5 | 0.00 | 0.13 | 0.00 | 14 | 1002.9 | |
| 20260506142255 | -40 | 6.4 | 16.1 | 0.00 | 0.13 | 0.00 | 14 | 1003.1 | |
| 20260506141048 | -40 | 8.0 | 20.9 | 0.00 | 0.13 | 0.00 | 14 | 1003.3 | |
| 20260506135842 | -40 | 6.4 | 24.1 | 0.00 | 0.13 | 0.00 | 14 | 1003.4 |